sensor_id;sensor_type;location;lat;lon;timestamp;temperature;humidity
3067;DHT22;1544;48.834;9.194;2024-03-02T00:01:44;8.40;52.40
3067;DHT22;1544;48.834;9.194;2024-03-02T00:04:20;8.40;52.30
3067;DHT22;1544;48.834;9.194;2024-03-02T00:06:56;8.40;52.30
3067;DHT22;1544;48.834;9.194;2024-03-02T00:09:32;8.40;52.50
3067;DHT22;1544;48.834;9.194;2024-03-02T00:12:12;8.40;52.40
3067;DHT22;1544;48.834;9.194;2024-03-02T00:14:51;8.40;52.30
3067;DHT22;1544;48.834;9.194;2024-03-02T00:17:27;8.40;52.30
3067;DHT22;1544;48.834;9.194;2024-03-02T00:20:03;8.40;52.20
3067;DHT22;1544;48.834;9.194;2024-03-02T00:22:40;8.40;52.10
3067;DHT22;1544;48.834;9.194;2024-03-02T00:25:17;8.40;51.90
3067;DHT22;1544;48.834;9.194;2024-03-02T00:27:53;8.40;52.10
3067;DHT22;1544;48.834;9.194;2024-03-02T00:33:42;8.30;51.20
3067;DHT22;1544;48.834;9.194;2024-03-02T00:36:26;8.40;51.00
3067;DHT22;1544;48.834;9.194;2024-03-02T00:39:05;8.30;50.90
3067;DHT22;1544;48.834;9.194;2024-03-02T00:41:43;8.30;50.80
3067;DHT22;1544;48.834;9.194;2024-03-02T00:44:25;8.30;50.70
3067;DHT22;1544;48.834;9.194;2024-03-02T00:47:02;8.30;50.70
3067;DHT22;1544;48.834;9.194;2024-03-02T00:49:38;8.30;50.70
3067;DHT22;1544;48.834;9.194;2024-03-02T00:52:16;8.30;50.60
3067;DHT22;1544;48.834;9.194;2024-03-02T00:54:53;8.30;50.60
3067;DHT22;1544;48.834;9.194;2024-03-02T00:57:34;8.30;50.50
3067;DHT22;1544;48.834;9.194;2024-03-02T01:00:10;8.30;50.40
3067;DHT22;1544;48.834;9.194;2024-03-02T01:02:50;8.30;50.30
3067;DHT22;1544;48.834;9.194;2024-03-02T01:05:26;8.30;50.20
3067;DHT22;1544;48.834;9.194;2024-03-02T01:08:03;8.30;50.10
3067;DHT22;1544;48.834;9.194;2024-03-02T01:10:40;8.30;50.10
3067;DHT22;1544;48.834;9.194;2024-03-02T01:13:16;8.30;50.00
3067;DHT22;1544;48.834;9.194;2024-03-02T01:15:52;8.30;49.90
3067;DHT22;1544;48.834;9.194;2024-03-02T01:18:29;8.30;49.80
3067;DHT22;1544;48.834;9.194;2024-03-02T01:21:05;8.30;49.80
3067;DHT22;1544;48.834;9.194;2024-03-02T01:23:41;8.30;49.70
3067;DHT22;1544;48.834;9.194;2024-03-02T01:26:17;8.20;49.60
3067;DHT22;1544;48.834;9.194;2024-03-02T01:28:53;8.20;49.60
3067;DHT22;1544;48.834;9.194;2024-03-02T01:31:29;8.20;49.70
3067;DHT22;1544;48.834;9.194;2024-03-02T01:34:05;8.20;49.70
3067;DHT22;1544;48.834;9.194;2024-03-02T01:36:41;8.10;49.60
3067;DHT22;1544;48.834;9.194;2024-03-02T01:39:17;8.10;49.60
3067;DHT22;1544;48.834;9.194;2024-03-02T01:41:53;8.10;49.50
3067;DHT22;1544;48.834;9.194;2024-03-02T01:44:28;8.00;49.40
3067;DHT22;1544;48.834;9.194;2024-03-02T01:47:04;8.00;49.50
3067;DHT22;1544;48.834;9.194;2024-03-02T01:49:40;7.90;49.40
3067;DHT22;1544;48.834;9.194;2024-03-02T01:52:16;7.90;49.50
3067;DHT22;1544;48.834;9.194;2024-03-02T01:54:52;7.90;49.50
3067;DHT22;1544;48.834;9.194;2024-03-02T01:57:29;7.90;49.60
3067;DHT22;1544;48.834;9.194;2024-03-02T02:00:06;7.80;49.60
3067;DHT22;1544;48.834;9.194;2024-03-02T02:02:47;7.80;49.70
3067;DHT22;1544;48.834;9.194;2024-03-02T02:05:23;7.70;49.70
3067;DHT22;1544;48.834;9.194;2024-03-02T02:08:01;7.70;49.80
3067;DHT22;1544;48.834;9.194;2024-03-02T02:10:37;7.70;49.90
3067;DHT22;1544;48.834;9.194;2024-03-02T02:13:13;7.70;50.00
3067;DHT22;1544;48.834;9.194;2024-03-02T02:15:49;7.60;50.30
3067;DHT22;1544;48.834;9.194;2024-03-02T02:18:25;7.50;50.40
3067;DHT22;1544;48.834;9.194;2024-03-02T02:21:01;7.50;50.40
3067;DHT22;1544;48.834;9.194;2024-03-02T02:23:37;7.40;50.40
3067;DHT22;1544;48.834;9.194;2024-03-02T02:26:13;7.40;50.50
3067;DHT22;1544;48.834;9.194;2024-03-02T02:28:49;7.30;50.40
3067;DHT22;1544;48.834;9.194;2024-03-02T02:31:25;7.30;50.60
3067;DHT22;1544;48.834;9.194;2024-03-02T02:34:01;7.30;50.90
3067;DHT22;1544;48.834;9.194;2024-03-02T02:36:38;7.20;51.00
3067;DHT22;1544;48.834;9.194;2024-03-02T02:39:20;7.20;51.20
3067;DHT22;1544;48.834;9.194;2024-03-02T02:41:57;7.10;51.20
3067;DHT22;1544;48.834;9.194;2024-03-02T02:44:33;7.10;51.30
3067;DHT22;1544;48.834;9.194;2024-03-02T02:47:09;7.00;51.30
3067;DHT22;1544;48.834;9.194;2024-03-02T02:49:45;7.00;51.40
3067;DHT22;1544;48.834;9.194;2024-03-02T02:52:21;7.00;51.80
3067;DHT22;1544;48.834;9.194;2024-03-02T02:54:57;7.00;52.20
3067;DHT22;1544;48.834;9.194;2024-03-02T02:57:34;6.90;52.50
3067;DHT22;1544;48.834;9.194;2024-03-02T03:00:13;6.90;52.90
3067;DHT22;1544;48.834;9.194;2024-03-02T03:02:53;6.90;53.20
3067;DHT22;1544;48.834;9.194;2024-03-02T03:05:29;6.90;53.40
3067;DHT22;1544;48.834;9.194;2024-03-02T03:08:05;6.90;53.50
3067;DHT22;1544;48.834;9.194;2024-03-02T03:10:41;6.80;53.60
3067;DHT22;1544;48.834;9.194;2024-03-02T03:13:17;6.80;53.90
3067;DHT22;1544;48.834;9.194;2024-03-02T03:15:53;6.80;53.90
3067;DHT22;1544;48.834;9.194;2024-03-02T03:18:29;6.80;53.90
3067;DHT22;1544;48.834;9.194;2024-03-02T03:21:05;6.80;53.80
3067;DHT22;1544;48.834;9.194;2024-03-02T03:23:41;6.80;53.80
3067;DHT22;1544;48.834;9.194;2024-03-02T03:26:17;6.80;53.70
3067;DHT22;1544;48.834;9.194;2024-03-02T03:28:52;6.80;53.90
3067;DHT22;1544;48.834;9.194;2024-03-02T03:31:29;6.70;53.90
3067;DHT22;1544;48.834;9.194;2024-03-02T03:34:05;6.70;54.30
3067;DHT22;1544;48.834;9.194;2024-03-02T03:36:42;6.60;54.40
3067;DHT22;1544;48.834;9.194;2024-03-02T03:39:18;6.60;54.60
3067;DHT22;1544;48.834;9.194;2024-03-02T03:41:55;6.60;54.50
3067;DHT22;1544;48.834;9.194;2024-03-02T03:44:31;6.60;54.30
3067;DHT22;1544;48.834;9.194;2024-03-02T03:47:07;6.60;54.20
3067;DHT22;1544;48.834;9.194;2024-03-02T03:49:43;6.50;54.10
3067;DHT22;1544;48.834;9.194;2024-03-02T03:52:19;6.50;53.80
3067;DHT22;1544;48.834;9.194;2024-03-02T03:54:56;6.50;53.70
3067;DHT22;1544;48.834;9.194;2024-03-02T03:57:32;6.40;53.80
3067;DHT22;1544;48.834;9.194;2024-03-02T04:00:09;6.40;53.80
3067;DHT22;1544;48.834;9.194;2024-03-02T04:02:49;6.40;53.90
3067;DHT22;1544;48.834;9.194;2024-03-02T04:05:25;6.40;54.00
3067;DHT22;1544;48.834;9.194;2024-03-02T04:08:00;6.40;54.20
3067;DHT22;1544;48.834;9.194;2024-03-02T04:10:36;6.30;54.30
3067;DHT22;1544;48.834;9.194;2024-03-02T04:13:12;6.30;54.60
3067;DHT22;1544;48.834;9.194;2024-03-02T04:15:48;6.30;54.80
3067;DHT22;1544;48.834;9.194;2024-03-02T04:18:24;6.30;55.00
3067;DHT22;1544;48.834;9.194;2024-03-02T04:21:00;6.30;55.10
3067;DHT22;1544;48.834;9.194;2024-03-02T04:23:36;6.30;55.00
3067;DHT22;1544;48.834;9.194;2024-03-02T04:26:12;6.20;54.80
3067;DHT22;1544;48.834;9.194;2024-03-02T04:28:48;6.20;54.70
3067;DHT22;1544;48.834;9.194;2024-03-02T04:31:24;6.20;54.80
3067;DHT22;1544;48.834;9.194;2024-03-02T04:34:00;6.20;55.00
3067;DHT22;1544;48.834;9.194;2024-03-02T04:36:36;6.10;55.40
3067;DHT22;1544;48.834;9.194;2024-03-02T04:39:12;6.10;55.70
3067;DHT22;1544;48.834;9.194;2024-03-02T04:41:48;6.10;56.10
3067;DHT22;1544;48.834;9.194;2024-03-02T04:44:24;6.20;56.50
3067;DHT22;1544;48.834;9.194;2024-03-02T04:47:00;6.20;56.70
3067;DHT22;1544;48.834;9.194;2024-03-02T04:49:35;6.20;56.80
3067;DHT22;1544;48.834;9.194;2024-03-02T04:52:12;6.20;56.80
3067;DHT22;1544;48.834;9.194;2024-03-02T04:54:48;6.20;56.70
3067;DHT22;1544;48.834;9.194;2024-03-02T04:57:43;6.20;56.60
3067;DHT22;1544;48.834;9.194;2024-03-02T05:00:19;6.10;56.20
3067;DHT22;1544;48.834;9.194;2024-03-02T05:02:55;6.10;56.10
3067;DHT22;1544;48.834;9.194;2024-03-02T05:05:31;6.10;56.10
3067;DHT22;1544;48.834;9.194;2024-03-02T05:08:07;6.00;56.30
3067;DHT22;1544;48.834;9.194;2024-03-02T05:10:43;6.00;56.70
3067;DHT22;1544;48.834;9.194;2024-03-02T05:13:19;6.00;56.90
3067;DHT22;1544;48.834;9.194;2024-03-02T05:15:56;6.00;56.90
3067;DHT22;1544;48.834;9.194;2024-03-02T05:18:32;6.00;56.90
3067;DHT22;1544;48.834;9.194;2024-03-02T05:21:08;6.00;56.70
3067;DHT22;1544;48.834;9.194;2024-03-02T05:23:44;6.00;56.90
3067;DHT22;1544;48.834;9.194;2024-03-02T05:26:20;6.00;57.00
3067;DHT22;1544;48.834;9.194;2024-03-02T05:28:56;6.00;57.20
3067;DHT22;1544;48.834;9.194;2024-03-02T05:31:32;6.00;57.40
3067;DHT22;1544;48.834;9.194;2024-03-02T05:34:08;6.00;57.50
3067;DHT22;1544;48.834;9.194;2024-03-02T05:36:44;6.00;57.40
3067;DHT22;1544;48.834;9.194;2024-03-02T05:39:20;6.00;57.30
3067;DHT22;1544;48.834;9.194;2024-03-02T05:41:56;6.00;57.10
3067;DHT22;1544;48.834;9.194;2024-03-02T05:44:32;5.90;56.70
3067;DHT22;1544;48.834;9.194;2024-03-02T05:47:08;5.90;57.00
3067;DHT22;1544;48.834;9.194;2024-03-02T05:49:44;5.90;56.90
3067;DHT22;1544;48.834;9.194;2024-03-02T05:52:20;5.90;56.70
3067;DHT22;1544;48.834;9.194;2024-03-02T05:54:56;5.80;56.50
3067;DHT22;1544;48.834;9.194;2024-03-02T05:57:32;5.80;56.30
3067;DHT22;1544;48.834;9.194;2024-03-02T06:00:29;5.80;56.20
3067;DHT22;1544;48.834;9.194;2024-03-02T06:03:06;5.80;56.10
3067;DHT22;1544;48.834;9.194;2024-03-02T06:05:44;5.80;56.30
3067;DHT22;1544;48.834;9.194;2024-03-02T06:08:20;5.70;56.40
3067;DHT22;1544;48.834;9.194;2024-03-02T06:10:56;5.70;56.40
3067;DHT22;1544;48.834;9.194;2024-03-02T06:13:32;5.70;56.30
3067;DHT22;1544;48.834;9.194;2024-03-02T06:16:08;5.70;56.20
3067;DHT22;1544;48.834;9.194;2024-03-02T06:18:44;5.70;56.20
3067;DHT22;1544;48.834;9.194;2024-03-02T06:21:20;5.70;56.30
3067;DHT22;1544;48.834;9.194;2024-03-02T06:23:56;5.70;56.40
3067;DHT22;1544;48.834;9.194;2024-03-02T06:26:33;5.90;57.00
3067;DHT22;1544;48.834;9.194;2024-03-02T06:29:09;5.80;56.50
3067;DHT22;1544;48.834;9.194;2024-03-02T06:31:45;5.80;56.80
3067;DHT22;1544;48.834;9.194;2024-03-02T06:34:21;5.80;57.10
3067;DHT22;1544;48.834;9.194;2024-03-02T06:36:57;5.90;57.50
3067;DHT22;1544;48.834;9.194;2024-03-02T06:39:33;5.90;57.60
3067;DHT22;1544;48.834;9.194;2024-03-02T06:42:10;6.00;57.70
3067;DHT22;1544;48.834;9.194;2024-03-02T06:44:46;6.10;57.50
3067;DHT22;1544;48.834;9.194;2024-03-02T06:47:22;6.20;57.40
3067;DHT22;1544;48.834;9.194;2024-03-02T06:49:58;6.20;57.20
3067;DHT22;1544;48.834;9.194;2024-03-02T06:52:34;6.30;57.20
3067;DHT22;1544;48.834;9.194;2024-03-02T06:55:11;6.40;57.10
3067;DHT22;1544;48.834;9.194;2024-03-02T06:57:47;6.40;56.90
3067;DHT22;1544;48.834;9.194;2024-03-02T07:00:24;6.50;56.70
3067;DHT22;1544;48.834;9.194;2024-03-02T07:03:01;6.60;56.50
3067;DHT22;1544;48.834;9.194;2024-03-02T07:05:38;6.70;56.30
3067;DHT22;1544;48.834;9.194;2024-03-02T07:08:14;6.70;55.90
3067;DHT22;1544;48.834;9.194;2024-03-02T07:10:50;6.80;55.80
3067;DHT22;1544;48.834;9.194;2024-03-02T07:13:26;6.80;55.60
3067;DHT22;1544;48.834;9.194;2024-03-02T07:16:02;6.90;55.50
3067;DHT22;1544;48.834;9.194;2024-03-02T07:18:38;6.90;55.20
3067;DHT22;1544;48.834;9.194;2024-03-02T07:21:17;7.00;55.30
3067;DHT22;1544;48.834;9.194;2024-03-02T07:23:54;7.00;55.10
3067;DHT22;1544;48.834;9.194;2024-03-02T07:26:30;7.00;55.00
3067;DHT22;1544;48.834;9.194;2024-03-02T07:29:10;7.00;54.90
3067;DHT22;1544;48.834;9.194;2024-03-02T07:31:46;7.10;55.10
3067;DHT22;1544;48.834;9.194;2024-03-02T07:34:22;7.10;54.80
3067;DHT22;1544;48.834;9.194;2024-03-02T07:36:58;7.20;54.70
3067;DHT22;1544;48.834;9.194;2024-03-02T07:39:34;7.20;54.50
3067;DHT22;1544;48.834;9.194;2024-03-02T07:42:10;7.30;54.50
3067;DHT22;1544;48.834;9.194;2024-03-02T07:44:46;7.30;54.50
3067;DHT22;1544;48.834;9.194;2024-03-02T07:47:22;7.40;54.50
3067;DHT22;1544;48.834;9.194;2024-03-02T07:49:58;7.40;54.50
3067;DHT22;1544;48.834;9.194;2024-03-02T07:52:34;7.40;54.60
3067;DHT22;1544;48.834;9.194;2024-03-02T07:55:10;7.50;54.50
3067;DHT22;1544;48.834;9.194;2024-03-02T07:57:57;7.50;54.30
3067;DHT22;1544;48.834;9.194;2024-03-02T08:00:39;7.60;54.10
3067;DHT22;1544;48.834;9.194;2024-03-02T08:03:16;7.60;53.70
3067;DHT22;1544;48.834;9.194;2024-03-02T08:05:52;7.60;53.50
3067;DHT22;1544;48.834;9.194;2024-03-02T08:08:28;7.60;53.10
3067;DHT22;1544;48.834;9.194;2024-03-02T08:11:04;7.70;53.00
3067;DHT22;1544;48.834;9.194;2024-03-02T08:13:40;7.70;52.70
3067;DHT22;1544;48.834;9.194;2024-03-02T08:16:16;7.70;52.50
3067;DHT22;1544;48.834;9.194;2024-03-02T08:18:55;7.70;52.30
3067;DHT22;1544;48.834;9.194;2024-03-02T08:21:34;7.80;52.10
3067;DHT22;1544;48.834;9.194;2024-03-02T08:24:11;7.80;51.80
3067;DHT22;1544;48.834;9.194;2024-03-02T08:26:47;7.80;51.70
3067;DHT22;1544;48.834;9.194;2024-03-02T08:29:23;7.80;51.60
3067;DHT22;1544;48.834;9.194;2024-03-02T08:31:59;7.80;51.40
3067;DHT22;1544;48.834;9.194;2024-03-02T08:34:36;7.90;51.30
3067;DHT22;1544;48.834;9.194;2024-03-02T08:37:12;7.90;51.10
3067;DHT22;1544;48.834;9.194;2024-03-02T08:39:48;8.00;51.10
3067;DHT22;1544;48.834;9.194;2024-03-02T08:42:24;8.00;50.80
3067;DHT22;1544;48.834;9.194;2024-03-02T08:45:00;8.00;50.60
3067;DHT22;1544;48.834;9.194;2024-03-02T08:47:39;8.10;50.70
3067;DHT22;1544;48.834;9.194;2024-03-02T08:50:15;8.10;50.60
3067;DHT22;1544;48.834;9.194;2024-03-02T08:52:51;8.20;50.40
3067;DHT22;1544;48.834;9.194;2024-03-02T08:55:27;8.20;50.20
3067;DHT22;1544;48.834;9.194;2024-03-02T08:58:03;8.30;50.00
3067;DHT22;1544;48.834;9.194;2024-03-02T09:00:40;9.30;50.60
3067;DHT22;1544;48.834;9.194;2024-03-02T09:03:17;8.50;49.60
3067;DHT22;1544;48.834;9.194;2024-03-02T09:05:53;8.50;49.00
3067;DHT22;1544;48.834;9.194;2024-03-02T09:08:29;8.60;48.60
3067;DHT22;1544;48.834;9.194;2024-03-02T09:11:06;8.70;47.80
3067;DHT22;1544;48.834;9.194;2024-03-02T09:13:43;8.80;47.10
3067;DHT22;1544;48.834;9.194;2024-03-02T09:16:20;8.90;46.30
3067;DHT22;1544;48.834;9.194;2024-03-02T09:18:56;8.90;45.90
3067;DHT22;1544;48.834;9.194;2024-03-02T09:21:32;9.00;45.40
3067;DHT22;1544;48.834;9.194;2024-03-02T09:24:08;9.10;45.30
3067;DHT22;1544;48.834;9.194;2024-03-02T09:26:45;9.20;44.40
3067;DHT22;1544;48.834;9.194;2024-03-02T09:29:22;9.40;43.90
3067;DHT22;1544;48.834;9.194;2024-03-02T09:31:58;9.40;43.60
3067;DHT22;1544;48.834;9.194;2024-03-02T09:34:34;9.50;43.50
3067;DHT22;1544;48.834;9.194;2024-03-02T09:37:10;9.60;43.50
3067;DHT22;1544;48.834;9.194;2024-03-02T09:39:46;9.70;42.90
3067;DHT22;1544;48.834;9.194;2024-03-02T09:42:23;9.80;42.60
3067;DHT22;1544;48.834;9.194;2024-03-02T09:45:00;9.90;42.50
3067;DHT22;1544;48.834;9.194;2024-03-02T09:47:36;10.00;41.50
3067;DHT22;1544;48.834;9.194;2024-03-02T09:50:12;10.00;40.70
3067;DHT22;1544;48.834;9.194;2024-03-02T09:52:48;10.10;40.70
3067;DHT22;1544;48.834;9.194;2024-03-02T09:55:27;10.20;40.30
3067;DHT22;1544;48.834;9.194;2024-03-02T09:58:04;10.30;40.10
3067;DHT22;1544;48.834;9.194;2024-03-02T10:00:40;10.40;39.90
3067;DHT22;1544;48.834;9.194;2024-03-02T10:03:18;10.50;39.40
3067;DHT22;1544;48.834;9.194;2024-03-02T10:05:55;10.60;39.00
3067;DHT22;1544;48.834;9.194;2024-03-02T10:08:43;10.80;39.00
3067;DHT22;1544;48.834;9.194;2024-03-02T10:11:34;10.80;38.90
3067;DHT22;1544;48.834;9.194;2024-03-02T10:14:14;11.00;39.00
3067;DHT22;1544;48.834;9.194;2024-03-02T10:16:50;11.10;38.90
3067;DHT22;1544;48.834;9.194;2024-03-02T10:19:26;11.30;38.50
3067;DHT22;1544;48.834;9.194;2024-03-02T10:22:09;11.40;38.40
3067;DHT22;1544;48.834;9.194;2024-03-02T10:24:46;11.50;38.20
3067;DHT22;1544;48.834;9.194;2024-03-02T10:27:25;11.60;37.80
3067;DHT22;1544;48.834;9.194;2024-03-02T10:30:02;11.80;37.80
3067;DHT22;1544;48.834;9.194;2024-03-02T10:32:41;12.00;37.70
3067;DHT22;1544;48.834;9.194;2024-03-02T10:35:17;12.10;37.50
3067;DHT22;1544;48.834;9.194;2024-03-02T10:37:53;12.20;37.30
3067;DHT22;1544;48.834;9.194;2024-03-02T10:40:29;12.40;37.10
3067;DHT22;1544;48.834;9.194;2024-03-02T10:43:06;12.50;36.60
3067;DHT22;1544;48.834;9.194;2024-03-02T10:45:43;12.70;36.70
3067;DHT22;1544;48.834;9.194;2024-03-02T10:48:20;12.80;36.60
3067;DHT22;1544;48.834;9.194;2024-03-02T10:50:57;12.90;35.90
3067;DHT22;1544;48.834;9.194;2024-03-02T10:53:37;13.00;35.60
3067;DHT22;1544;48.834;9.194;2024-03-02T10:56:18;13.10;35.60
3067;DHT22;1544;48.834;9.194;2024-03-02T11:01:56;13.40;35.70
3067;DHT22;1544;48.834;9.194;2024-03-02T11:04:40;13.50;35.50
3067;DHT22;1544;48.834;9.194;2024-03-02T11:07:18;13.60;35.20
3067;DHT22;1544;48.834;9.194;2024-03-02T11:10:01;13.70;35.30
3067;DHT22;1544;48.834;9.194;2024-03-02T11:13:00;13.90;35.10
3067;DHT22;1544;48.834;9.194;2024-03-02T11:15:40;14.00;34.80
3067;DHT22;1544;48.834;9.194;2024-03-02T11:18:20;14.20;34.60
3067;DHT22;1544;48.834;9.194;2024-03-02T11:20:57;14.40;34.80
3067;DHT22;1544;48.834;9.194;2024-03-02T11:23:33;14.50;34.70
3067;DHT22;1544;48.834;9.194;2024-03-02T11:28:54;14.80;34.50
3067;DHT22;1544;48.834;9.194;2024-03-02T11:31:58;14.90;33.90
3067;DHT22;1544;48.834;9.194;2024-03-02T11:34:41;15.00;33.20
3067;DHT22;1544;48.834;9.194;2024-03-02T11:37:28;15.10;32.90
3067;DHT22;1544;48.834;9.194;2024-03-02T11:40:04;15.30;33.50
3067;DHT22;1544;48.834;9.194;2024-03-02T11:42:41;15.40;33.60
3067;DHT22;1544;48.834;9.194;2024-03-02T11:45:23;15.60;33.70
3067;DHT22;1544;48.834;9.194;2024-03-02T11:48:00;15.70;33.50
3067;DHT22;1544;48.834;9.194;2024-03-02T11:50:40;15.80;32.60
3067;DHT22;1544;48.834;9.194;2024-03-02T11:53:26;15.90;32.10
3067;DHT22;1544;48.834;9.194;2024-03-02T11:56:06;16.10;31.60
3067;DHT22;1544;48.834;9.194;2024-03-02T11:58:45;16.30;31.40
3067;DHT22;1544;48.834;9.194;2024-03-02T12:01:23;16.40;30.90
3067;DHT22;1544;48.834;9.194;2024-03-02T12:03:59;16.60;30.90
3067;DHT22;1544;48.834;9.194;2024-03-02T12:06:35;16.80;31.30
3067;DHT22;1544;48.834;9.194;2024-03-02T12:09:12;17.00;30.70
3067;DHT22;1544;48.834;9.194;2024-03-02T12:12:01;17.30;31.10
3067;DHT22;1544;48.834;9.194;2024-03-02T12:14:40;17.50;30.10
3067;DHT22;1544;48.834;9.194;2024-03-02T12:17:26;17.70;29.60
3067;DHT22;1544;48.834;9.194;2024-03-02T12:20:05;17.80;29.50
3067;DHT22;1544;48.834;9.194;2024-03-02T12:22:43;18.00;29.20
3067;DHT22;1544;48.834;9.194;2024-03-02T12:25:20;18.20;29.20
3067;DHT22;1544;48.834;9.194;2024-03-02T12:27:58;18.50;28.40
3067;DHT22;1544;48.834;9.194;2024-03-02T12:30:35;18.80;30.20
3067;DHT22;1544;48.834;9.194;2024-03-02T12:33:12;19.10;29.60
3067;DHT22;1544;48.834;9.194;2024-03-02T12:35:49;19.30;28.40
3067;DHT22;1544;48.834;9.194;2024-03-02T12:38:25;19.50;28.50
3067;DHT22;1544;48.834;9.194;2024-03-02T12:41:02;19.80;29.00
3067;DHT22;1544;48.834;9.194;2024-03-02T12:43:38;19.90;27.60
3067;DHT22;1544;48.834;9.194;2024-03-02T12:46:14;20.10;27.70
3067;DHT22;1544;48.834;9.194;2024-03-02T12:48:51;20.40;28.70
3067;DHT22;1544;48.834;9.194;2024-03-02T12:51:27;20.60;28.90
3067;DHT22;1544;48.834;9.194;2024-03-02T12:54:03;20.80;28.20
3067;DHT22;1544;48.834;9.194;2024-03-02T12:56:41;21.10;28.00
3067;DHT22;1544;48.834;9.194;2024-03-02T12:59:24;21.30;29.00
3067;DHT22;1544;48.834;9.194;2024-03-02T13:02:02;21.60;28.30
3067;DHT22;1544;48.834;9.194;2024-03-02T13:04:38;22.00;28.20
3067;DHT22;1544;48.834;9.194;2024-03-02T13:07:16;22.20;28.00
3067;DHT22;1544;48.834;9.194;2024-03-02T13:09:52;22.40;28.60
3067;DHT22;1544;48.834;9.194;2024-03-02T13:12:31;22.70;28.40
3067;DHT22;1544;48.834;9.194;2024-03-02T13:15:08;22.80;28.10
3067;DHT22;1544;48.834;9.194;2024-03-02T13:17:47;23.00;27.70
3067;DHT22;1544;48.834;9.194;2024-03-02T13:20:30;23.20;28.50
3067;DHT22;1544;48.834;9.194;2024-03-02T13:23:10;23.40;27.80
3067;DHT22;1544;48.834;9.194;2024-03-02T13:25:46;23.60;26.90
3067;DHT22;1544;48.834;9.194;2024-03-02T13:28:23;23.60;28.40
3067;DHT22;1544;48.834;9.194;2024-03-02T13:30:59;23.90;26.80
3067;DHT22;1544;48.834;9.194;2024-03-02T13:33:36;23.90;25.90
3067;DHT22;1544;48.834;9.194;2024-03-02T13:36:12;23.90;27.00
3067;DHT22;1544;48.834;9.194;2024-03-02T13:38:48;24.10;27.70
3067;DHT22;1544;48.834;9.194;2024-03-02T13:41:24;24.10;26.40
3067;DHT22;1544;48.834;9.194;2024-03-02T13:44:00;24.20;25.70
3067;DHT22;1544;48.834;9.194;2024-03-02T13:46:37;24.40;28.30
3067;DHT22;1544;48.834;9.194;2024-03-02T13:49:13;24.50;27.20
3067;DHT22;1544;48.834;9.194;2024-03-02T13:51:49;24.60;27.00
3067;DHT22;1544;48.834;9.194;2024-03-02T13:54:25;24.80;27.90
3067;DHT22;1544;48.834;9.194;2024-03-02T13:57:02;24.90;27.40
3067;DHT22;1544;48.834;9.194;2024-03-02T13:59:39;25.00;26.80
3067;DHT22;1544;48.834;9.194;2024-03-02T14:02:16;25.10;26.10
3067;DHT22;1544;48.834;9.194;2024-03-02T14:04:52;25.20;25.80
3067;DHT22;1544;48.834;9.194;2024-03-02T14:07:28;25.40;25.00
3067;DHT22;1544;48.834;9.194;2024-03-02T14:10:04;25.40;25.90
3067;DHT22;1544;48.834;9.194;2024-03-02T14:12:41;25.50;25.30
3067;DHT22;1544;48.834;9.194;2024-03-02T14:15:17;25.60;25.60
3067;DHT22;1544;48.834;9.194;2024-03-02T14:17:56;25.60;26.10
3067;DHT22;1544;48.834;9.194;2024-03-02T14:20:32;25.70;25.40
3067;DHT22;1544;48.834;9.194;2024-03-02T14:23:08;25.70;25.40
3067;DHT22;1544;48.834;9.194;2024-03-02T14:25:46;25.70;25.90
3067;DHT22;1544;48.834;9.194;2024-03-02T14:28:21;25.70;24.50
3067;DHT22;1544;48.834;9.194;2024-03-02T14:31:17;25.70;26.10
3067;DHT22;1544;48.834;9.194;2024-03-02T14:33:54;25.80;25.40
3067;DHT22;1544;48.834;9.194;2024-03-02T14:36:30;25.90;25.00
3067;DHT22;1544;48.834;9.194;2024-03-02T14:39:06;25.90;25.40
3067;DHT22;1544;48.834;9.194;2024-03-02T14:41:45;25.90;25.10
3067;DHT22;1544;48.834;9.194;2024-03-02T14:44:21;25.90;24.30
3067;DHT22;1544;48.834;9.194;2024-03-02T14:46:57;25.80;24.50
3067;DHT22;1544;48.834;9.194;2024-03-02T14:49:34;25.80;25.30
3067;DHT22;1544;48.834;9.194;2024-03-02T14:52:13;25.80;25.10
3067;DHT22;1544;48.834;9.194;2024-03-02T14:54:49;25.70;24.20
3067;DHT22;1544;48.834;9.194;2024-03-02T14:57:25;25.60;24.50
3067;DHT22;1544;48.834;9.194;2024-03-02T15:00:02;25.50;25.20
3067;DHT22;1544;48.834;9.194;2024-03-02T15:02:38;25.40;24.00
3067;DHT22;1544;48.834;9.194;2024-03-02T15:05:14;25.30;24.10
3067;DHT22;1544;48.834;9.194;2024-03-02T15:07:50;25.30;24.70
3067;DHT22;1544;48.834;9.194;2024-03-02T15:10:26;25.30;25.00
3067;DHT22;1544;48.834;9.194;2024-03-02T15:13:03;25.40;24.80
3067;DHT22;1544;48.834;9.194;2024-03-02T15:15:39;25.40;25.10
3067;DHT22;1544;48.834;9.194;2024-03-02T15:18:15;25.50;24.50
3067;DHT22;1544;48.834;9.194;2024-03-02T15:20:52;25.40;24.10
3067;DHT22;1544;48.834;9.194;2024-03-02T15:23:28;25.40;23.70
3067;DHT22;1544;48.834;9.194;2024-03-02T15:26:05;25.30;23.60
3067;DHT22;1544;48.834;9.194;2024-03-02T15:28:44;25.10;23.50
3067;DHT22;1544;48.834;9.194;2024-03-02T15:31:20;24.80;23.50
3067;DHT22;1544;48.834;9.194;2024-03-02T15:33:56;24.40;23.80
3067;DHT22;1544;48.834;9.194;2024-03-02T15:36:34;24.10;24.00
3067;DHT22;1544;48.834;9.194;2024-03-02T15:39:10;23.90;23.90
3067;DHT22;1544;48.834;9.194;2024-03-02T15:41:47;23.60;23.90
3067;DHT22;1544;48.834;9.194;2024-03-02T15:44:22;23.20;23.70
3067;DHT22;1544;48.834;9.194;2024-03-02T15:46:59;22.90;23.40
3067;DHT22;1544;48.834;9.194;2024-03-02T15:49:35;22.70;23.60
3067;DHT22;1544;48.834;9.194;2024-03-02T15:52:10;22.40;23.50
3067;DHT22;1544;48.834;9.194;2024-03-02T15:54:48;22.10;23.60
3067;DHT22;1544;48.834;9.194;2024-03-02T15:57:25;21.90;24.10
3067;DHT22;1544;48.834;9.194;2024-03-02T16:00:01;21.70;24.20
3067;DHT22;1544;48.834;9.194;2024-03-02T16:02:46;21.40;24.30
3067;DHT22;1544;48.834;9.194;2024-03-02T16:05:22;21.10;24.30
3067;DHT22;1544;48.834;9.194;2024-03-02T16:07:57;20.90;24.80
3067;DHT22;1544;48.834;9.194;2024-03-02T16:10:33;20.70;24.70
3067;DHT22;1544;48.834;9.194;2024-03-02T16:13:09;20.50;25.10
3067;DHT22;1544;48.834;9.194;2024-03-02T16:15:45;20.30;25.20
3067;DHT22;1544;48.834;9.194;2024-03-02T16:18:22;20.10;25.40
3067;DHT22;1544;48.834;9.194;2024-03-02T16:20:58;19.90;25.20
3067;DHT22;1544;48.834;9.194;2024-03-02T16:23:34;19.70;25.30
3067;DHT22;1544;48.834;9.194;2024-03-02T16:26:10;19.60;25.40
3067;DHT22;1544;48.834;9.194;2024-03-02T16:28:47;19.30;25.50
3067;DHT22;1544;48.834;9.194;2024-03-02T16:31:23;19.20;25.70
3067;DHT22;1544;48.834;9.194;2024-03-02T16:34:01;19.10;25.80
3067;DHT22;1544;48.834;9.194;2024-03-02T16:36:37;18.90;25.90
3067;DHT22;1544;48.834;9.194;2024-03-02T16:39:13;18.70;26.60
3067;DHT22;1544;48.834;9.194;2024-03-02T16:41:49;18.60;26.40
3067;DHT22;1544;48.834;9.194;2024-03-02T16:44:25;18.50;26.60
3067;DHT22;1544;48.834;9.194;2024-03-02T16:47:01;18.40;26.50
3067;DHT22;1544;48.834;9.194;2024-03-02T16:49:37;18.30;26.80
3067;DHT22;1544;48.834;9.194;2024-03-02T16:52:13;18.10;26.80
3067;DHT22;1544;48.834;9.194;2024-03-02T16:54:50;18.00;27.00
3067;DHT22;1544;48.834;9.194;2024-03-02T16:57:26;17.80;27.10
3067;DHT22;1544;48.834;9.194;2024-03-02T17:00:05;18.20;27.70
3067;DHT22;1544;48.834;9.194;2024-03-02T17:02:43;17.60;27.50
3067;DHT22;1544;48.834;9.194;2024-03-02T17:05:19;17.40;27.70
3067;DHT22;1544;48.834;9.194;2024-03-02T17:07:57;17.40;28.00
3067;DHT22;1544;48.834;9.194;2024-03-02T17:10:33;17.30;28.00
3067;DHT22;1544;48.834;9.194;2024-03-02T17:13:10;17.10;28.10
3067;DHT22;1544;48.834;9.194;2024-03-02T17:15:46;16.90;28.20
3067;DHT22;1544;48.834;9.194;2024-03-02T17:18:21;16.80;28.40
3067;DHT22;1544;48.834;9.194;2024-03-02T17:20:57;16.70;28.50
3067;DHT22;1544;48.834;9.194;2024-03-02T17:23:33;16.70;28.70